Time;durP1;ratioP1;P1;durP2;ratioP2;P2;SDS_P1;SDS_P2;PMS_P1;PMS_P2;Temp;Humidity;BMP_temperature;BMP_pressure;BME280_temperature;BME280_humidity;BME280_pressure;Samples;Min_cycle;Max_cycle;Signal;HPM_P1;HPM_P2
2021/10/03 00:01:25;;;;;;;5.13;4.63;;;;;;;16.58;86.13;97301.03;5059654;28;20223;-64
2021/10/03 00:03:53;;;;;;;4.87;4.30;;;;;;;16.58;86.02;97298.34;5059473;28;20593;-64
2021/10/03 00:06:22;;;;;;;4.90;4.33;;;;;;;16.59;86.17;97284.00;5062300;28;20223;-64
2021/10/03 00:08:52;;;;;;;4.23;3.83;;;;;;;16.58;85.95;97287.69;5059140;28;20299;-65
2021/10/03 00:11:18;;;;;;;4.37;3.97;;;;;;;16.60;85.69;97288.38;5059314;28;20216;-64
2021/10/03 00:13:45;;;;;;;4.57;4.17;;;;;;;16.62;85.68;97281.03;5059960;28;20216;-64
2021/10/03 00:16:12;;;;;;;4.80;4.27;;;;;;;16.61;85.58;97290.03;5061773;28;20591;-64
2021/10/03 00:18:38;;;;;;;4.80;4.30;;;;;;;16.64;85.37;97286.22;5059344;28;20216;-64
2021/10/03 00:21:07;;;;;;;5.43;4.40;;;;;;;16.65;85.18;97286.03;5059147;28;20322;-64
2021/10/03 00:23:34;;;;;;;5.73;4.50;;;;;;;16.66;85.84;97284.22;5057923;28;20216;-64
2021/10/03 00:26:02;;;;;;;4.80;4.00;;;;;;;16.62;86.26;97289.03;5061742;28;20223;-64
2021/10/03 00:28:29;;;;;;;5.37;4.67;;;;;;;16.60;85.98;97288.38;5058688;28;20704;-64
2021/10/03 00:30:56;;;;;;;5.87;4.43;;;;;;;16.56;86.57;97303.03;5059130;28;20574;-64
2021/10/03 00:33:23;;;;;;;5.80;4.80;;;;;;;16.55;86.43;97297.84;5059185;28;20236;-64
2021/10/03 00:35:50;;;;;;;5.43;4.93;;;;;;;16.45;87.28;97306.00;5061680;28;20216;-64
2021/10/03 00:38:17;;;;;;;5.90;4.63;;;;;;;16.47;87.07;97304.00;5059057;28;20231;-64
2021/10/03 00:40:45;;;;;;;4.87;4.37;;;;;;;16.47;87.08;97303.16;5058601;28;20295;-64
2021/10/03 00:43:13;;;;;;;5.60;4.83;;;;;;;16.46;87.07;97307.66;5058666;28;20229;-64
2021/10/03 00:45:40;;;;;;;5.20;4.43;;;;;;;16.45;87.07;97294.50;5061659;28;20215;-64
2021/10/03 00:48:07;;;;;;;5.20;4.70;;;;;;;16.44;87.10;97299.00;5056812;28;20221;-64
2021/10/03 00:50:36;;;;;;;5.63;4.70;;;;;;;16.44;87.07;97287.47;5058457;28;20212;-64
2021/10/03 00:53:02;;;;;;;5.37;4.40;;;;;;;16.47;86.44;97285.31;5058503;28;20252;-64
2021/10/03 00:55:29;;;;;;;5.67;4.93;;;;;;;16.51;85.38;97280.53;5060121;28;20238;-65
2021/10/03 00:57:57;;;;;;;4.73;4.13;;;;;;;16.56;84.83;97283.50;5058751;28;20224;-65
2021/10/03 01:00:28;;;;;;;5.03;4.53;;;;;;;16.59;84.44;97283.19;5053661;28;20212;-65
2021/10/03 01:02:56;;;;;;;5.17;4.53;;;;;;;16.55;84.76;97276.50;5057602;28;20241;-64
2021/10/03 01:05:23;;;;;;;5.10;4.60;;;;;;;16.60;84.84;97276.84;5058514;28;20208;-64
2021/10/03 01:07:50;;;;;;;6.20;5.40;;;;;;;16.55;85.17;97272.03;5057140;28;20223;-64
2021/10/03 01:10:22;;;;;;;5.77;4.57;;;;;;;16.56;85.10;97270.16;5057140;28;20212;-65
2021/10/03 01:12:52;;;;;;;4.90;4.40;;;;;;;16.54;85.42;97270.34;5056789;28;20613;-64
2021/10/03 01:15:18;;;;;;;5.53;4.50;;;;;;;16.52;85.50;97275.00;5058490;28;20293;-64
2021/10/03 01:17:46;;;;;;;4.90;4.37;;;;;;;16.51;85.40;97262.66;5057849;28;20212;-64
2021/10/03 01:20:12;;;;;;;4.60;4.10;;;;;;;16.51;85.39;97254.66;5057918;28;20223;-64
2021/10/03 01:22:40;;;;;;;5.23;4.60;;;;;;;16.49;85.29;97248.66;5059326;28;20569;-64
2021/10/03 01:25:10;;;;;;;5.77;4.13;;;;;;;16.50;85.52;97255.66;5059614;28;20226;-64
2021/10/03 01:27:38;;;;;;;4.43;4.03;;;;;;;16.50;85.76;97250.34;5057876;28;20212;-64
2021/10/03 01:30:06;;;;;;;4.67;4.27;;;;;;;16.50;85.85;97245.00;5057540;28;20216;-64
2021/10/03 01:32:32;;;;;;;4.33;3.93;;;;;;;16.47;86.14;97242.63;5059461;28;20243;-64
2021/10/03 01:34:58;;;;;;;4.57;4.03;;;;;;;16.48;86.52;97232.81;5059442;28;20707;-64
2021/10/03 01:37:25;;;;;;;4.37;3.73;;;;;;;16.44;86.60;97234.13;5057547;28;20218;-64
2021/10/03 01:39:53;;;;;;;4.97;4.47;;;;;;;16.41;87.04;97239.81;5055793;28;20214;-65
2021/10/03 01:42:20;;;;;;;5.10;4.20;;;;;;;16.38;87.50;97238.31;5056614;28;20570;-64
2021/10/03 01:44:46;;;;;;;6.60;5.07;;;;;;;16.35;87.98;97238.56;5059378;28;20775;-64
2021/10/03 01:47:13;;;;;;;5.27;4.77;;;;;;;16.32;88.07;97236.25;5057545;28;20212;-64
2021/10/03 01:49:39;;;;;;;7.67;5.80;;;;;;;16.25;88.76;97229.91;5057485;28;20216;-64
2021/10/03 01:52:06;;;;;;;6.30;5.57;;;;;;;16.19;89.42;97224.38;5057579;28;20247;-64
2021/10/03 01:54:34;;;;;;;6.10;5.50;;;;;;;16.12;90.12;97223.34;5059707;28;20207;-64
2021/10/03 01:57:03;;;;;;;6.30;5.23;;;;;;;16.07;90.78;97220.34;5057499;28;20558;-64
2021/10/03 01:59:29;;;;;;;6.83;5.30;;;;;;;16.02;91.03;97216.50;5057455;28;20215;-64
2021/10/03 02:01:57;;;;;;;6.27;5.37;;;;;;;15.98;91.44;97217.81;5058039;28;20583;-64
2021/10/03 02:04:25;;;;;;;6.67;5.50;;;;;;;15.96;91.94;97206.50;5059602;28;20251;-64
2021/10/03 02:06:54;;;;;;;6.33;5.63;;;;;;;15.96;92.05;97207.34;5055411;28;20227;-64
2021/10/03 02:09:24;;;;;;;6.20;5.60;;;;;;;15.98;91.67;97202.66;5057101;28;20587;-64
2021/10/03 02:11:52;;;;;;;6.73;5.70;;;;;;;15.95;91.82;97202.16;5055968;28;20212;-65
2021/10/03 02:14:21;;;;;;;6.37;5.50;;;;;;;15.92;92.07;97200.66;5059108;28;20215;-65
2021/10/03 02:16:48;;;;;;;6.17;5.33;;;;;;;15.92;92.24;97197.13;5056996;28;20672;-64
2021/10/03 02:19:14;;;;;;;6.20;5.60;;;;;;;15.93;92.23;97196.97;5056683;28;20216;-64
2021/10/03 02:21:41;;;;;;;6.53;5.00;;;;;;;15.93;91.74;97191.66;5058328;28;20227;-64
2021/10/03 02:24:10;;;;;;;5.87;4.97;;;;;;;15.95;91.25;97183.50;5058956;28;20618;-64
2021/10/03 02:26:36;;;;;;;5.30;4.80;;;;;;;15.97;90.88;97200.16;5056788;28;20219;-64
2021/10/03 02:29:03;;;;;;;5.10;4.60;;;;;;;15.98;90.09;97190.16;5056846;28;20216;-64
2021/10/03 02:31:31;;;;;;;5.77;4.47;;;;;;;16.01;89.66;97193.53;5057307;28;20224;-64
2021/10/03 02:33:57;;;;;;;6.30;4.97;;;;;;;15.98;89.54;97183.16;5058208;28;20234;-64
2021/10/03 02:36:24;;;;;;;6.10;5.03;;;;;;;16.02;88.65;97180.00;5056677;28;20219;-64
2021/10/03 02:38:51;;;;;;;5.73;5.03;;;;;;;16.05;88.27;97185.03;5056712;28;20219;-64
2021/10/03 02:41:18;;;;;;;5.87;4.73;;;;;;;16.06;87.20;97176.03;5057767;28;20227;-64
2021/10/03 02:43:48;;;;;;;4.67;4.07;;;;;;;16.07;87.11;97167.03;5059033;28;20219;-64
2021/10/03 02:46:15;;;;;;;5.20;4.20;;;;;;;16.08;86.03;97164.22;5056551;28;20216;-64
2021/10/03 02:48:49;;;;;;;4.37;3.97;;;;;;;16.10;85.92;97151.53;5056619;28;20302;-64
2021/10/03 02:51:16;;;;;;;4.07;3.67;;;;;;;16.13;85.39;97145.91;5058895;28;20578;-65
2021/10/03 02:53:43;;;;;;;5.83;4.40;;;;;;;16.17;84.47;97147.25;5057879;28;20246;-65
2021/10/03 02:56:09;;;;;;;4.40;4.00;;;;;;;16.16;84.26;97148.22;5055107;28;20208;-65
2021/10/03 02:58:36;;;;;;;4.20;3.80;;;;;;;16.14;84.72;97146.72;5055013;28;20211;-64
2021/10/03 03:01:02;;;;;;;5.43;4.23;;;;;;;16.09;85.08;97149.88;5058184;28;20269;-64
2021/10/03 03:03:30;;;;;;;4.67;4.17;;;;;;;16.05;85.61;97147.72;5058158;28;20215;-64
2021/10/03 03:05:58;;;;;;;4.40;3.97;;;;;;;15.98;85.91;97141.38;5059647;28;20219;-64
2021/10/03 03:08:24;;;;;;;4.87;4.20;;;;;;;15.95;86.00;97146.19;5060559;28;20219;-64
2021/10/03 03:10:51;;;;;;;5.33;4.10;;;;;;;15.94;85.85;97144.53;5061713;28;20219;-64
2021/10/03 03:13:17;;;;;;;4.40;4.00;;;;;;;15.96;85.55;97134.53;5062061;28;20723;-64
2021/10/03 03:15:43;;;;;;;4.30;3.80;;;;;;;15.94;85.58;97133.88;5060259;28;20540;-64
2021/10/03 03:18:10;;;;;;;4.87;4.13;;;;;;;15.90;85.99;97137.84;5060227;28;20223;-64
2021/10/03 03:20:36;;;;;;;4.37;3.80;;;;;;;15.88;86.40;97142.50;5060973;28;20227;-64
2021/10/03 03:23:04;;;;;;;4.83;4.03;;;;;;;15.90;86.04;97138.69;5062811;28;20223;-64
2021/10/03 03:25:31;;;;;;;6.80;4.20;;;;;;;15.91;85.85;97136.84;5058801;28;20226;-65
2021/10/03 03:27:57;;;;;;;4.30;3.90;;;;;;;15.88;86.61;97130.00;5060247;28;20227;-64
2021/10/03 03:30:24;;;;;;;3.83;3.53;;;;;;;15.85;86.51;97134.84;5060727;28;20219;-65
2021/10/03 03:32:51;;;;;;;4.57;4.10;;;;;;;15.87;86.62;97132.81;5062885;28;20600;-64
2021/10/03 03:35:17;;;;;;;4.37;3.70;;;;;;;15.85;86.51;97130.34;5059757;28;20220;-65
2021/10/03 03:37:43;;;;;;;5.53;3.80;;;;;;;15.87;86.46;97122.16;5059863;28;20226;-64
2021/10/03 03:40:14;;;;;;;4.40;3.90;;;;;;;15.87;85.94;97122.16;5060016;28;20621;-65
2021/10/03 03:42:41;;;;;;;4.77;3.83;;;;;;;15.89;86.06;97122.84;5062640;28;20738;-64
2021/10/03 03:45:09;;;;;;;4.67;4.27;;;;;;;15.86;86.52;97126.69;5060287;28;20219;-64
2021/10/03 03:47:36;;;;;;;4.13;3.63;;;;;;;15.85;86.77;97129.50;5059745;28;20649;-65
2021/10/03 03:50:03;;;;;;;4.20;3.80;;;;;;;15.82;86.94;97112.00;5058407;28;20218;-64
2021/10/03 03:52:29;;;;;;;4.60;4.10;;;;;;;15.81;86.83;97128.16;5062822;28;20660;-64
2021/10/03 03:54:56;;;;;;;4.37;3.97;;;;;;;15.81;86.92;97130.81;5059426;28;20223;-64
2021/10/03 03:57:24;;;;;;;5.20;3.90;;;;;;;15.81;86.91;97120.16;5059590;28;20211;-64
2021/10/03 03:59:50;;;;;;;4.60;4.00;;;;;;;15.78;86.73;97117.84;5059387;28;20603;-64
2021/10/03 04:02:17;;;;;;;4.93;4.27;;;;;;;15.77;86.46;97116.16;5062980;28;20215;-64
2021/10/03 04:04:44;;;;;;;4.00;3.60;;;;;;;15.74;86.54;97116.47;5059163;28;20223;-64
2021/10/03 04:07:11;;;;;;;4.33;3.80;;;;;;;15.72;86.66;97113.16;5059222;28;20234;-64
2021/10/03 04:09:38;;;;;;;4.17;3.70;;;;;;;15.70;85.99;97115.16;5059405;28;20222;-64
2021/10/03 04:12:05;;;;;;;5.23;4.10;;;;;;;15.71;85.29;97108.81;5062852;28;20233;-64
2021/10/03 04:14:33;;;;;;;4.47;3.47;;;;;;;15.70;84.96;97104.50;5049474;28;20603;-64
2021/10/03 04:16:59;;;;;;;4.30;3.70;;;;;;;15.65;85.17;97112.13;5057147;28;20222;-64
2021/10/03 04:19:26;;;;;;;4.47;3.80;;;;;;;15.59;84.93;97110.94;5059061;28;20216;-64
2021/10/03 04:21:52;;;;;;;3.60;3.30;;;;;;;15.59;84.09;97097.63;5062137;28;20222;-64
2021/10/03 04:24:19;;;;;;;3.70;3.27;;;;;;;15.58;82.86;97097.81;5059642;28;20578;-64
2021/10/03 04:26:45;;;;;;;4.17;3.77;;;;;;;15.55;83.34;97101.63;5058908;28;20212;-64
2021/10/03 04:29:12;;;;;;;4.23;3.60;;;;;;;15.50;83.45;97108.41;5058829;28;20227;-64
2021/10/03 04:31:39;;;;;;;5.10;3.60;;;;;;;15.55;83.42;97092.78;5061908;28;20220;-64
2021/10/03 04:34:06;;;;;;;4.20;3.80;;;;;;;15.62;82.99;97102.63;5059648;28;20261;-64
2021/10/03 04:36:32;;;;;;;4.33;3.83;;;;;;;15.64;83.18;97099.81;5059058;28;20215;-64
2021/10/03 04:38:59;;;;;;;4.07;3.67;;;;;;;15.68;82.94;97090.50;5058654;28;20215;-64
2021/10/03 04:41:25;;;;;;;4.37;3.53;;;;;;;15.65;83.59;97086.31;5060774;28;20219;-64
2021/10/03 04:43:52;;;;;;;4.07;3.67;;;;;;;15.60;84.19;97087.81;5058489;28;20684;-65
2021/10/03 04:46:18;;;;;;;3.80;3.43;;;;;;;15.68;83.55;97087.81;5058472;28;20215;-64
2021/10/03 04:48:46;;;;;;;3.63;3.33;;;;;;;15.72;82.69;97075.84;5058471;28;20222;-64
2021/10/03 04:51:13;;;;;;;4.13;3.73;;;;;;;15.78;81.14;97088.53;5060926;28;20215;-64
2021/10/03 04:53:39;;;;;;;4.07;3.67;;;;;;;15.73;81.65;97075.69;5060082;28;20243;-64
2021/10/03 04:56:06;;;;;;;5.27;3.50;;;;;;;15.77;81.30;97070.88;5057437;28;20713;-64
2021/10/03 04:58:33;;;;;;;3.63;3.20;;;;;;;15.77;81.42;97069.03;5058532;28;20246;-64
2021/10/03 05:01:00;;;;;;;4.67;3.70;;;;;;;15.80;81.10;97073.19;5060211;28;20243;-64
2021/10/03 05:03:26;;;;;;;4.43;3.40;;;;;;;15.79;81.35;97082.19;5060166;28;20576;-64
2021/10/03 05:05:54;;;;;;;3.67;3.20;;;;;;;15.81;80.55;97072.19;5058273;28;20215;-64
2021/10/03 05:08:21;;;;;;;3.47;3.17;;;;;;;15.80;80.42;97066.06;5056704;28;20217;-64
2021/10/03 05:10:47;;;;;;;3.33;3.03;;;;;;;15.84;78.91;97074.56;5059561;28;20617;-64
2021/10/03 05:13:14;;;;;;;3.70;3.20;;;;;;;15.90;78.63;97076.56;5060280;28;20591;-64
2021/10/03 05:15:42;;;;;;;3.90;3.17;;;;;;;15.91;78.19;97075.56;5058256;28;20568;-64
2021/10/03 05:18:09;;;;;;;3.40;3.10;;;;;;;15.97;76.95;97058.91;5057888;28;20682;-64
2021/10/03 05:20:35;;;;;;;3.40;2.90;;;;;;;16.02;76.75;97063.59;5056450;28;20216;-64
2021/10/03 05:23:03;;;;;;;4.10;3.47;;;;;;;15.90;75.91;97074.75;5060584;28;20226;-64
2021/10/03 05:25:31;;;;;;;4.03;3.10;;;;;;;16.02;75.84;97073.41;5058039;28;20213;-64
2021/10/03 05:27:58;;;;;;;3.30;3.00;;;;;;;16.04;76.23;97077.56;5056929;28;20223;-64
2021/10/03 05:30:24;;;;;;;4.40;3.20;;;;;;;16.06;77.19;97082.75;5058634;28;20219;-64
2021/10/03 05:32:52;;;;;;;3.47;3.17;;;;;;;16.06;77.33;97079.25;5060460;28;20208;-64
2021/10/03 05:35:20;;;;;;;3.00;2.80;;;;;;;16.06;77.50;97081.94;5056054;28;20306;-64
2021/10/03 05:37:46;;;;;;;3.50;2.93;;;;;;;16.04;77.95;97088.22;5057811;28;20216;-64
2021/10/03 05:40:14;;;;;;;3.40;3.10;;;;;;;16.06;77.64;97082.75;5058251;28;20216;-64
2021/10/03 05:42:40;;;;;;;3.50;3.20;;;;;;;16.07;77.50;97086.25;5060469;28;20211;-64
2021/10/03 05:45:08;;;;;;;3.93;3.33;;;;;;;16.09;76.45;97087.75;5057639;28;20588;-64
2021/10/03 05:47:35;;;;;;;3.93;2.90;;;;;;;16.12;76.23;97081.25;5057291;28;20219;-64
2021/10/03 05:50:01;;;;;;;3.83;3.27;;;;;;;16.17;74.85;97079.75;5054815;28;20216;-64
2021/10/03 05:52:28;;;;;;;3.43;3.13;;;;;;;16.25;73.57;97074.41;5060218;28;20251;-64
2021/10/03 05:54:54;;;;;;;3.20;2.90;;;;;;;16.22;73.73;97091.56;5057157;28;20254;-64
2021/10/03 05:57:22;;;;;;;3.57;3.00;;;;;;;16.27;73.88;97083.91;5057155;28;20216;-64
2021/10/03 05:59:49;;;;;;;6.03;3.27;;;;;;;16.33;73.45;97079.78;5055679;28;20219;-64
2021/10/03 06:02:15;;;;;;;3.30;3.00;;;;;;;16.32;73.81;97075.41;5060504;28;20215;-64
2021/10/03 06:04:42;;;;;;;5.10;3.00;;;;;;;16.31;74.25;97082.59;5057083;28;20219;-64
2021/10/03 06:07:08;;;;;;;3.47;3.00;;;;;;;16.33;74.31;97088.59;5057397;28;20575;-64
2021/10/03 06:09:35;;;;;;;2.93;2.63;;;;;;;16.34;74.59;97074.25;5056904;28;20666;-64
2021/10/03 06:12:01;;;;;;;3.37;3.07;;;;;;;16.29;74.95;97078.44;5060694;28;20215;-64
2021/10/03 06:14:29;;;;;;;5.23;3.27;;;;;;;16.32;75.61;97091.41;5056886;28;20242;-64
2021/10/03 06:16:55;;;;;;;3.33;3.03;;;;;;;16.40;75.07;97076.28;5057245;28;20212;-64
2021/10/03 06:19:22;;;;;;;5.40;3.30;;;;;;;16.47;73.57;97079.13;5056790;28;20223;-64
2021/10/03 06:21:48;;;;;;;2.90;2.60;;;;;;;16.49;73.85;97083.28;5060041;28;20211;-64
2021/10/03 06:24:18;;;;;;;3.20;2.73;;;;;;;16.54;73.77;97072.13;5057559;28;20212;-64
2021/10/03 06:26:47;;;;;;;5.53;2.93;;;;;;;16.54;73.87;97075.63;5055539;28;20212;-64
2021/10/03 06:29:14;;;;;;;3.67;2.97;;;;;;;16.55;74.55;97087.13;5056945;28;20215;-64
2021/10/03 06:31:42;;;;;;;3.40;2.90;;;;;;;16.64;74.06;97096.78;5060113;28;20215;-64
2021/10/03 06:34:08;;;;;;;3.07;2.53;;;;;;;16.80;73.63;97083.41;5047112;28;20246;-64
2021/10/03 06:36:35;;;;;;;3.27;2.97;;;;;;;16.88;72.59;97089.56;5056556;28;20218;-64
2021/10/03 06:39:01;;;;;;;3.43;3.13;;;;;;;17.02;71.20;97080.84;5056272;28;20669;-64
2021/10/03 06:41:28;;;;;;;3.10;2.80;;;;;;;17.10;70.45;97072.84;5059847;28;20584;-64
2021/10/03 06:43:54;;;;;;;3.20;2.60;;;;;;;17.05;68.39;97080.53;5056698;28;20223;-64
2021/10/03 06:46:21;;;;;;;3.30;3.00;;;;;;;17.20;68.84;97075.31;5056563;28;20224;-64
2021/10/03 06:48:49;;;;;;;3.37;2.77;;;;;;;17.21;68.71;97079.63;5056718;28;20219;-64
2021/10/03 06:51:15;;;;;;;3.47;2.50;;;;;;;17.35;67.84;97066.41;5059187;28;20596;-64
2021/10/03 06:53:42;;;;;;;5.57;2.70;;;;;;;17.32;67.30;97085.44;5055375;28;20255;-64
2021/10/03 06:56:09;;;;;;;2.60;2.40;;;;;;;17.44;67.87;97078.72;5056132;28;20558;-65
2021/10/03 06:58:36;;;;;;;4.00;2.80;;;;;;;17.52;67.06;97077.88;5056364;28;20258;-64
2021/10/03 07:01:04;;;;;;;2.53;2.33;;;;;;;17.73;66.48;97080.78;5058698;28;20226;-64
2021/10/03 07:03:30;;;;;;;2.57;2.37;;;;;;;17.90;66.32;97079.66;5056426;28;20640;-64
2021/10/03 07:05:58;;;;;;;3.30;2.63;;;;;;;17.96;66.18;97098.50;5056473;28;20216;-64
2021/10/03 07:08:25;;;;;;;3.00;2.70;;;;;;;18.06;66.52;97098.28;5056185;28;20704;-64
2021/10/03 07:10:51;;;;;;;4.33;3.00;;;;;;;18.10;66.89;97096.94;5058645;28;20212;-64
2021/10/03 07:13:18;;;;;;;3.43;3.13;;;;;;;18.04;66.32;97106.47;5057357;28;20218;-64
2021/10/03 07:15:44;;;;;;;3.20;2.90;;;;;;;18.09;66.63;97109.47;5056064;28;20704;-64
2021/10/03 07:18:12;;;;;;;3.67;3.03;;;;;;;18.08;66.88;97102.44;5054654;28;20235;-64
2021/10/03 07:20:38;;;;;;;3.00;2.50;;;;;;;18.11;67.08;97101.28;5057723;28;20243;-64
2021/10/03 07:23:06;;;;;;;2.87;2.67;;;;;;;18.09;67.00;97106.78;5057991;28;20223;-64
2021/10/03 07:25:33;;;;;;;3.10;2.67;;;;;;;18.10;67.61;97103.09;5055952;28;20243;-64
2021/10/03 07:27:59;;;;;;;3.00;2.70;;;;;;;18.09;67.77;97111.28;5056115;28;20212;-64
2021/10/03 07:30:26;;;;;;;3.80;2.80;;;;;;;18.06;67.00;97114.34;5057310;28;20223;-65
2021/10/03 07:32:52;;;;;;;2.80;2.50;;;;;;;18.11;66.90;97128.81;5058578;28;20230;-64
2021/10/03 07:35:19;;;;;;;2.80;2.60;;;;;;;18.19;66.97;97118.09;5056144;28;21398;-64
2021/10/03 07:37:45;;;;;;;3.20;2.47;;;;;;;18.24;67.04;97112.22;5055807;28;20220;-64
2021/10/03 07:40:13;;;;;;;2.50;2.30;;;;;;;18.26;66.77;97111.03;5056603;28;20220;-64
2021/10/03 07:42:42;;;;;;;2.73;2.53;;;;;;;18.28;67.64;97109.00;5058555;28;20219;-64
2021/10/03 07:45:10;;;;;;;2.97;2.73;;;;;;;18.28;67.67;97109.00;5054133;28;20661;-64
2021/10/03 07:47:37;;;;;;;2.90;2.60;;;;;;;18.32;67.51;97115.69;5056058;28;20216;-64
2021/10/03 07:50:04;;;;;;;3.20;2.60;;;;;;;18.39;67.10;97122.00;5053906;28;20220;-64
2021/10/03 07:52:30;;;;;;;3.20;2.90;;;;;;;18.35;66.86;97119.84;5062021;28;20325;-64
2021/10/03 07:54:57;;;;;;;3.00;2.70;;;;;;;18.33;66.97;97122.69;5059438;28;20607;-65
2021/10/03 07:57:25;;;;;;;3.30;2.90;;;;;;;18.44;66.69;97122.28;5057946;28;20220;-64
2021/10/03 07:59:52;;;;;;;3.33;2.40;;;;;;;18.48;67.13;97102.16;5058104;28;20220;-63
2021/10/03 08:02:18;;;;;;;4.03;2.60;;;;;;;18.41;66.93;97133.34;5060631;28;20223;-63
2021/10/03 08:04:44;;;;;;;2.73;2.43;;;;;;;18.51;67.07;97125.06;5058180;28;20692;-63
2021/10/03 08:07:11;;;;;;;2.70;2.37;;;;;;;18.59;67.41;97131.19;5057658;28;20216;-66
2021/10/03 08:09:37;;;;;;;2.80;2.53;;;;;;;18.62;67.40;97116.63;5052295;28;20220;-64
2021/10/03 08:12:05;;;;;;;2.80;2.23;;;;;;;18.66;66.66;97101.88;5064161;28;20214;-66
2021/10/03 08:14:33;;;;;;;2.77;2.53;;;;;;;18.68;66.78;97100.69;5065175;28;20323;-64
2021/10/03 08:16:59;;;;;;;3.17;2.40;;;;;;;18.68;65.99;97099.84;5067908;28;20220;-64
2021/10/03 08:19:26;;;;;;;3.17;2.80;;;;;;;18.66;66.40;97102.69;5068983;28;20207;-65
2021/10/03 08:21:52;;;;;;;2.50;2.30;;;;;;;18.64;67.17;97096.69;5068849;28;20739;-64
2021/10/03 08:24:19;;;;;;;3.23;2.60;;;;;;;18.63;67.54;97092.34;5064097;28;20212;-64
2021/10/03 08:26:46;;;;;;;2.67;2.47;;;;;;;18.64;67.12;97088.66;5064779;28;20220;-64
2021/10/03 08:29:12;;;;;;;2.57;2.37;;;;;;;18.58;66.37;97100.09;5069104;28;20215;-65
2021/10/03 08:31:40;;;;;;;3.93;2.77;;;;;;;18.56;67.05;97102.13;5069014;28;20215;-64
2021/10/03 08:34:07;;;;;;;3.37;2.93;;;;;;;18.53;67.83;97107.00;5061791;28;20236;-65
2021/10/03 08:36:33;;;;;;;2.83;2.57;;;;;;;18.54;67.93;97098.78;5065056;28;20216;-64
2021/10/03 08:39:00;;;;;;;3.20;2.37;;;;;;;18.55;67.70;97097.78;5068835;28;20215;-65
2021/10/03 08:41:26;;;;;;;2.73;2.50;;;;;;;18.56;67.86;97099.44;5068891;28;20681;-65
2021/10/03 08:43:53;;;;;;;2.90;2.40;;;;;;;18.62;68.06;97100.56;5065449;28;20216;-65
2021/10/03 08:46:24;;;;;;;2.53;2.33;;;;;;;18.64;68.11;97110.06;5063241;28;20217;-64
2021/10/03 08:48:53;;;;;;;4.93;2.53;;;;;;;18.58;68.67;97105.44;5068609;28;20211;-64
2021/10/03 08:51:19;;;;;;;3.20;2.80;;;;;;;18.48;69.13;97131.59;5067261;28;20222;-65
2021/10/03 08:53:46;;;;;;;3.70;2.70;;;;;;;18.56;69.15;97133.38;5063470;28;20216;-64
2021/10/03 08:56:13;;;;;;;4.50;3.10;;;;;;;18.65;69.70;97124.31;5064619;28;20208;-65
2021/10/03 08:58:39;;;;;;;3.33;2.90;;;;;;;18.65;68.78;97132.34;5067011;28;20218;-64
2021/10/03 09:01:08;;;;;;;3.30;2.50;;;;;;;18.76;68.75;97118.50;5066575;28;20207;-65
2021/10/03 09:03:34;;;;;;;2.47;2.20;;;;;;;18.88;68.08;97115.22;5061393;28;20696;-64
2021/10/03 09:06:03;;;;;;;3.50;2.50;;;;;;;18.83;69.39;97125.63;5061490;28;20227;-65
2021/10/03 09:08:31;;;;;;;3.10;2.53;;;;;;;18.87;69.86;97137.66;5066672;28;20741;-64
2021/10/03 09:10:59;;;;;;;2.80;2.50;;;;;;;18.93;68.06;97126.22;5066653;28;20207;-65
2021/10/03 09:13:42;;;;;;;3.03;2.60;;;;;;;18.91;67.95;97128.22;5064488;28;20213;-65
2021/10/03 09:16:11;;;;;;;3.00;2.70;;;;;;;18.81;68.93;97127.66;5067827;28;20250;-65
2021/10/03 09:18:41;;;;;;;3.30;2.50;;;;;;;18.81;69.20;97133.00;5068088;28;20219;-65
2021/10/03 09:21:10;;;;;;;2.93;2.73;;;;;;;18.81;69.22;97127.66;5065779;28;20214;-64
2021/10/03 09:23:37;;;;;;;3.90;2.80;;;;;;;18.83;68.61;97114.09;5056077;28;20223;-65
2021/10/03 09:26:10;;;;;;;2.77;2.57;;;;;;;18.83;68.50;97117.59;5068085;28;20226;-64
2021/10/03 09:28:37;;;;;;;4.40;2.53;;;;;;;18.87;67.74;97116.22;5067266;28;20583;-65
2021/10/03 09:31:08;;;;;;;2.63;2.43;;;;;;;18.87;68.48;97126.94;5064193;28;20212;-65
2021/10/03 09:33:47;;;;;;;2.87;2.57;;;;;;;18.89;68.33;97114.19;5063037;28;20217;-65
2021/10/03 09:36:17;;;;;;;4.67;2.50;;;;;;;18.92;68.85;97115.69;5067778;28;20242;-65
2021/10/03 09:38:52;;;;;;;2.73;2.53;;;;;;;18.93;69.35;97120.84;5066124;28;20333;-65
2021/10/03 09:41:22;;;;;;;4.00;2.77;;;;;;;18.85;70.31;97112.91;5064231;28;20213;-65
2021/10/03 09:43:51;;;;;;;2.60;2.40;;;;;;;18.93;70.78;97120.84;5067304;28;20298;-64
2021/10/03 09:46:37;;;;;;;3.20;2.67;;;;;;;18.99;70.93;97114.78;5067576;28;20208;-65
2021/10/03 09:49:06;;;;;;;3.37;2.90;;;;;;;19.07;69.78;97113.88;5062181;28;20593;-65
2021/10/03 09:51:34;;;;;;;2.73;2.40;;;;;;;19.11;69.76;97118.66;5067290;28;20209;-65
2021/10/03 09:54:01;;;;;;;2.90;2.60;;;;;;;19.15;69.50;97108.41;5067285;28;20222;-65
2021/10/03 09:56:27;;;;;;;2.93;2.67;;;;;;;19.19;69.97;97120.44;5055678;28;20224;-65
2021/10/03 09:58:55;;;;;;;3.53;2.50;;;;;;;19.21;70.80;97119.25;5063858;28;20212;-65
2021/10/03 10:01:22;;;;;;;3.20;2.70;;;;;;;19.17;71.04;97123.28;5066946;28;20220;-65
2021/10/03 10:03:50;;;;;;;2.87;2.53;;;;;;;19.23;70.54;97130.63;5067308;28;20242;-65
2021/10/03 10:06:17;;;;;;;3.13;2.80;;;;;;;19.26;69.83;97135.59;5065413;28;20266;-64
2021/10/03 10:08:46;;;;;;;2.77;2.47;;;;;;;19.26;71.11;97127.56;5063496;28;20220;-65
2021/10/03 10:11:17;;;;;;;3.17;2.57;;;;;;;19.30;72.25;97128.03;5067051;28;20591;-64
2021/10/03 10:13:54;;;;;;;2.70;2.50;;;;;;;19.28;72.92;97130.91;5066735;28;20207;-65
2021/10/03 10:16:38;;;;;;;2.80;2.57;;;;;;;19.28;71.92;97120.19;5063455;28;20243;-65
2021/10/03 10:19:27;;;;;;;2.80;2.50;;;;;;;19.36;72.26;97128.13;5066611;28;20263;-65
2021/10/03 10:22:36;;;;;;;2.77;2.47;;;;;;;19.47;72.46;97119.66;5064744;28;20219;-65
2021/10/03 10:25:18;;;;;;;2.93;2.40;;;;;;;19.65;71.40;97112.06;5047640;28;20225;-65
2021/10/03 10:27:59;;;;;;;2.40;2.20;;;;;;;19.82;69.94;97108.13;5066556;28;20223;-65
2021/10/03 10:30:25;;;;;;;4.10;2.63;;;;;;;19.96;68.60;97114.47;5062825;28;20297;-64
2021/10/03 10:33:05;;;;;;;2.13;1.93;;;;;;;20.09;68.10;97118.19;5047238;28;20215;-65
2021/10/03 10:35:34;;;;;;;2.40;2.20;;;;;;;20.17;67.54;97112.69;5066542;28;20242;-65
2021/10/03 10:38:18;;;;;;;2.40;2.20;;;;;;;20.23;67.70;97116.50;5053376;28;20215;-64
2021/10/03 10:40:46;;;;;;;2.47;2.10;;;;;;;20.23;66.94;97120.00;5047265;28;20219;-65
2021/10/03 10:43:39;;;;;;;2.40;2.10;;;;;;;20.30;66.60;97117.38;5066712;28;20226;-66
2021/10/03 10:46:06;;;;;;;2.40;2.20;;;;;;;20.34;67.14;97111.44;5061160;28;20299;-66
2021/10/03 10:48:32;;;;;;;2.20;1.97;;;;;;;20.41;66.65;97115.00;5064482;28;20691;-66
2021/10/03 10:51:20;;;;;;;3.53;2.10;;;;;;;20.52;66.89;97114.50;5066405;28;20680;-66
2021/10/03 10:53:47;;;;;;;2.37;2.17;;;;;;;20.65;66.04;97113.78;5058200;28;20223;-66
2021/10/03 10:56:18;;;;;;;2.40;2.20;;;;;;;20.74;65.86;97113.50;5064209;28;20618;-66
2021/10/03 10:59:03;;;;;;;2.27;2.07;;;;;;;20.79;65.57;97113.72;5066778;28;20223;-66
2021/10/03 11:01:40;;;;;;;2.77;2.20;;;;;;;20.83;65.19;97104.25;5063472;28;20224;-66
2021/10/03 11:04:25;;;;;;;3.10;2.20;;;;;;;20.85;65.95;97112.13;5062992;28;20216;-66
2021/10/03 11:06:58;;;;;;;2.70;2.23;;;;;;;20.90;67.04;97104.34;5066594;28;20215;-66
2021/10/03 11:09:25;;;;;;;2.27;2.07;;;;;;;20.93;67.15;97110.16;5063323;28;20212;-66
2021/10/03 11:12:08;;;;;;;2.40;2.20;;;;;;;20.94;66.91;97111.81;5063582;28;20215;-66
2021/10/03 11:14:35;;;;;;;2.30;2.10;;;;;;;20.93;67.14;97107.47;5064900;28;20666;-66
2021/10/03 11:17:05;;;;;;;2.50;2.20;;;;;;;20.92;66.43;97096.91;5065450;28;20210;-66
2021/10/03 11:19:49;;;;;;;2.87;2.60;;;;;;;20.90;66.13;97099.78;5062528;28;20222;-66
2021/10/03 11:22:22;;;;;;;3.17;2.87;;;;;;;20.74;66.33;97094.69;5049864;28;20214;-66
2021/10/03 11:24:51;;;;;;;3.23;2.90;;;;;;;20.69;67.10;97091.75;5065712;28;20555;-66
2021/10/03 11:27:21;;;;;;;3.03;2.63;;;;;;;20.59;67.59;97091.25;5065808;28;20695;-66
2021/10/03 11:29:49;;;;;;;3.47;2.53;;;;;;;20.42;67.79;97105.94;5069169;28;20672;-66
2021/10/03 11:32:19;;;;;;;6.93;2.73;;;;;;;20.45;68.68;97092.16;5070053;28;20211;-67
2021/10/03 11:34:47;;;;;;;3.13;2.83;;;;;;;20.48;68.39;97105.16;5068779;28;20223;-66
2021/10/03 11:37:17;;;;;;;3.63;3.10;;;;;;;20.42;68.99;97110.50;5066174;28;20220;-66
2021/10/03 11:39:49;;;;;;;3.40;3.10;;;;;;;20.56;68.15;97098.84;5049855;28;20222;-66